Time;durP1;ratioP1;P1;durP2;ratioP2;P2;SDS_P1;SDS_P2;PMS_P1;PMS_P2;Temp;Humidity;BMP_temperature;BMP_pressure;BME280_temperature;BME280_humidity;BME280_pressure;Samples;Min_cycle;Max_cycle;Signal;HPM_P1;HPM_P2
2022/10/14 00:00:35;;;;;;;;;8.50;8.25;;;;;15.70;84.59;100844.06;4991397;28;45373;-64
2022/10/14 00:03:01;;;;;;;;;7.00;7.00;;;;;15.56;83.98;100818.59;4963578;28;45680;-63
2022/10/14 00:05:27;;;;;;;;;8.75;8.25;;;;;15.76;84.22;100845.03;4939593;28;45320;-62
2022/10/14 00:07:52;;;;;;;;;10.25;6.75;;;;;15.79;83.82;100838.16;4974296;28;45423;-63
2022/10/14 00:10:18;;;;;;;;;17.00;16.75;;;;;15.78;83.55;100837.31;4975337;28;45366;-62
2022/10/14 00:12:44;;;;;;;;;11.00;11.00;;;;;15.82;83.86;100838.50;4975647;28;45466;-62
2022/10/14 00:15:09;;;;;;;;;13.00;10.80;;;;;15.64;83.80;100798.00;4975707;28;45433;-62
2022/10/14 00:17:35;;;;;;;;;9.00;7.50;;;;;15.78;84.25;100837.31;5007070;28;45766;-62
2022/10/14 00:20:01;;;;;;;;;9.00;9.00;;;;;15.81;84.00;100833.22;4974611;28;45413;-61
2022/10/14 00:22:26;;;;;;;;;5.50;5.50;;;;;15.74;84.42;100818.69;4975740;28;45439;-62
2022/10/14 00:24:52;;;;;;;;;6.50;6.50;;;;;15.69;84.09;100813.88;4976198;28;45850;-62
2022/10/14 00:27:17;;;;;;;;;8.50;7.00;;;;;15.82;83.74;100821.91;4974277;28;46286;-62
2022/10/14 00:29:43;;;;;;;;;6.00;6.00;;;;;15.81;83.77;100822.97;4975556;28;45414;-61
2022/10/14 00:32:08;;;;;;;;;8.25;8.25;;;;;15.82;83.97;100821.91;4976147;28;45461;-62
2022/10/14 00:34:34;;;;;;;;;7.75;6.25;;;;;15.83;83.84;100812.50;4975809;28;45317;-62
2022/10/14 00:37:00;;;;;;;;;5.20;5.00;;;;;15.85;83.41;100815.88;4974476;28;46113;-62
2022/10/14 00:39:25;;;;;;;;;6.25;6.25;;;;;15.88;83.48;100806.22;4975439;28;45366;-62
2022/10/14 00:41:51;;;;;;;;;5.25;5.00;;;;;15.87;83.83;100801.78;4975799;28;45319;-62
2022/10/14 00:44:16;;;;;;;;;5.25;5.25;;;;;15.83;83.37;100793.13;4976043;28;45299;-63
2022/10/14 00:46:43;;;;;;;;;7.75;6.75;;;;;15.88;83.34;100792.41;4975870;28;46441;-62
2022/10/14 00:49:14;;;;;;;;;6.40;6.20;;;;;15.71;83.55;100771.03;4976043;28;45351;-63
2022/10/14 00:51:41;;;;;;;;;6.00;6.00;;;;;15.85;83.61;100792.91;4975635;28;45375;-65
2022/10/14 00:54:07;;;;;;;;;3.40;3.40;;;;;15.84;83.21;100791.19;4974574;28;45378;-63
2022/10/14 00:56:32;;;;;;;;;6.00;5.00;;;;;15.85;83.71;100796.50;4975145;28;45549;-63
2022/10/14 00:58:58;;;;;;;;;6.00;5.25;;;;;15.86;83.47;100789.03;4974676;28;45363;-63
2022/10/14 01:01:23;;;;;;;;;7.25;6.25;;;;;15.88;83.71;100792.41;4974702;28;45426;-63
2022/10/14 01:03:49;;;;;;;;;3.50;3.50;;;;;15.82;83.73;100785.94;4963310;28;45376;-64
2022/10/14 01:06:37;;;;;;;;;7.50;5.50;;;;;15.82;83.52;100790.59;4961075;28;47351;-63
2022/10/14 01:09:22;;;;;;;;;7.20;5.80;;;;;15.83;83.55;100782.06;4957012;28;45528;-63
2022/10/14 01:12:14;;;;;;;;;5.60;5.00;;;;;15.87;83.01;100787.94;4973594;28;45520;-63
2022/10/14 01:14:49;;;;;;;;;6.40;4.60;;;;;15.57;83.83;100745.59;4960809;28;45354;-63
2022/10/14 01:17:34;;;;;;;;;6.60;4.80;;;;;15.81;83.79;100778.69;4974340;28;45965;-63
2022/10/14 01:20:18;;;;;;;;;7.40;6.00;;;;;15.86;83.54;100773.25;4973690;28;45555;-63
2022/10/14 01:22:52;;;;;;;;;6.00;5.80;;;;;15.65;83.90;100735.22;4975297;28;45439;-63
2022/10/14 01:25:19;;;;;;;;;7.60;5.00;;;;;15.74;83.75;100746.75;4974522;28;45342;-63
2022/10/14 01:28:09;;;;;;;;;5.80;4.80;;;;;15.82;83.79;100761.03;4974165;28;46346;-63
2022/10/14 01:30:42;;;;;;;;;4.00;4.00;;;;;15.87;83.49;100760.28;4974964;28;45354;-63
2022/10/14 01:33:24;;;;;;;;;6.80;5.60;;;;;15.57;83.26;100706.88;4975054;28;45462;-63
2022/10/14 01:36:06;;;;;;;;;5.40;5.40;;;;;15.89;83.55;100757.28;4958725;28;45468;-63
2022/10/14 01:38:47;;;;;;;;;3.80;3.80;;;;;15.88;83.42;100753.66;4973897;28;45664;-63
2022/10/14 01:41:28;;;;;;;;;5.60;5.60;;;;;15.35;83.30;100675.41;4958045;28;45390;-63
2022/10/14 01:43:54;;;;;;;;;4.80;4.80;;;;;15.91;83.03;100755.91;4973597;28;45272;-63
2022/10/14 01:46:21;;;;;;;;;6.40;5.60;;;;;15.92;83.30;100754.03;4973676;28;45491;-62
2022/10/14 01:48:48;;;;;;;;;6.20;6.00;;;;;15.91;83.30;100753.13;4957093;28;45459;-62
2022/10/14 01:51:17;;;;;;;;;6.60;6.60;;;;;15.89;83.51;100744.25;4957076;28;45548;-62
2022/10/14 01:53:48;;;;;;;;;5.20;5.20;;;;;15.70;83.86;100702.13;4973618;28;45370;-62
2022/10/14 01:56:13;;;;;;;;;7.80;5.80;;;;;15.92;83.43;100743.81;4973692;28;45546;-65
2022/10/14 01:58:39;;;;;;;;;6.25;6.00;;;;;15.86;83.91;100742.00;4973105;28;46553;-63
2022/10/14 02:01:05;;;;;;;;;5.50;5.50;;;;;15.91;83.48;100739.31;4973038;28;45440;-62
2022/10/14 02:03:41;;;;;;;;;5.60;5.60;;;;;15.76;83.54;100722.41;4973610;28;45457;-62
2022/10/14 02:06:12;;;;;;;;;8.60;7.40;;;;;15.94;83.48;100740.75;4956706;28;45743;-62
2022/10/14 02:08:37;;;;;;;;;7.20;6.00;;;;;15.94;83.71;100749.06;4957703;28;46661;-63
2022/10/14 02:11:14;;;;;;;;;5.75;4.75;;;;;15.92;83.56;100732.72;4974309;28;45393;-62
2022/10/14 02:13:50;;;;;;;;;6.00;6.00;;;;;15.81;83.14;100715.03;4973280;28;45837;-62
2022/10/14 02:16:35;;;;;;;;;9.40;7.60;;;;;15.71;83.22;100690.78;4976177;28;45286;-62
2022/10/14 02:19:15;;;;;;;;;6.60;6.40;;;;;15.90;83.01;100714.66;4976488;28;45413;-62
2022/10/14 02:21:47;;;;;;;;;6.60;6.60;;;;;15.97;83.10;100724.50;4975987;28;45590;-62
2022/10/14 02:24:19;;;;;;;;;6.60;5.40;;;;;15.97;83.37;100724.50;4975955;28;45368;-62
2022/10/14 02:26:46;;;;;;;;;9.20;7.80;;;;;15.98;83.16;100723.44;4976389;28;45473;-62
2022/10/14 02:29:11;;;;;;;;;6.20;6.20;;;;;15.93;83.20;100715.03;4959807;28;46590;-63
2022/10/14 02:31:37;;;;;;;;;8.50;7.25;;;;;15.99;83.43;100727.03;4960171;28;45335;-63
2022/10/14 02:34:04;;;;;;;;;6.50;6.25;;;;;16.00;83.14;100720.41;4960641;28;45409;-63
2022/10/14 02:36:30;;;;;;;;;5.60;5.60;;;;;15.96;83.45;100716.47;4992632;28;45454;-62
2022/10/14 02:38:57;;;;;;;;;6.25;5.00;;;;;15.99;83.62;100719.56;4976395;28;45508;-62
2022/10/14 02:41:24;;;;;;;;;7.60;7.60;;;;;15.99;83.47;100718.72;4967359;28;45283;-63
2022/10/14 02:43:49;;;;;;;;;5.80;5.80;;;;;15.94;83.35;100710.31;4940895;28;45558;-63
2022/10/14 02:46:18;;;;;;;;;5.00;5.00;;;;;15.79;83.33;100685.97;4957142;28;45530;-61
2022/10/14 02:48:44;;;;;;;;;4.80;4.80;;;;;15.76;83.83;100687.31;4956650;28;45415;-61
2022/10/14 02:51:10;;;;;;;;;7.00;7.00;;;;;15.96;84.16;100708.16;4956746;28;45430;-64
2022/10/14 02:53:35;;;;;;;;;7.25;6.50;;;;;15.73;83.88;100668.41;4956587;28;45479;-61
2022/10/14 02:56:01;;;;;;;;;5.25;5.00;;;;;15.94;83.84;100713.94;4956840;28;45536;-61
2022/10/14 02:58:26;;;;;;;;;8.50;7.00;;;;;15.89;83.58;100704.69;4957535;28;46142;-61
2022/10/14 03:00:51;;;;;;;;;7.00;7.00;;;;;15.95;83.86;100712.84;4957648;28;45323;-61
2022/10/14 03:03:17;;;;;;;;;5.00;5.00;;;;;15.85;84.71;100709.88;4958020;28;45363;-61
2022/10/14 03:05:43;;;;;;;;;6.75;4.00;;;;;15.77;85.65;100722.19;4940218;28;45399;-61
2022/10/14 03:08:09;;;;;;;;;7.75;6.75;;;;;15.42;86.02;100676.16;4957686;28;45564;-61
2022/10/14 03:10:35;;;;;;;;;3.60;3.60;;;;;15.57;86.36;100698.56;4956129;28;45698;-61
2022/10/14 03:13:00;;;;;;;;;5.50;5.50;;;;;15.63;87.26;100716.09;4957645;28;45332;-61
2022/10/14 03:15:26;;;;;;;;;5.50;5.00;;;;;15.70;86.30;100719.53;4958008;28;45597;-61
2022/10/14 03:17:51;;;;;;;;;5.25;4.25;;;;;15.58;85.89;100691.94;4955924;28;46751;-61
2022/10/14 03:20:17;;;;;;;;;5.50;4.00;;;;;15.75;85.64;100713.28;4957440;28;45332;-61
2022/10/14 03:22:42;;;;;;;;;6.00;6.00;;;;;15.78;85.29;100706.41;4957270;28;45323;-61
2022/10/14 03:25:08;;;;;;;;;4.50;4.50;;;;;15.82;85.35;100716.75;4956003;28;45348;-62
2022/10/14 03:27:34;;;;;;;;;9.20;7.20;;;;;15.82;85.22;100711.22;4956632;28;45382;-61
2022/10/14 03:29:59;;;;;;;;;6.50;4.50;;;;;15.85;85.13;100716.22;4957061;28;45458;-61
2022/10/14 03:32:25;;;;;;;;;5.50;5.50;;;;;15.84;85.25;100719.25;4956926;28;45463;-62
2022/10/14 03:34:50;;;;;;;;;5.75;5.00;;;;;15.79;85.77;100720.00;4947636;28;45430;-61
2022/10/14 03:37:15;;;;;;;;;3.75;3.75;;;;;15.07;85.26;100585.84;4955964;28;45953;-61
2022/10/14 03:39:41;;;;;;;;;4.75;3.75;;;;;15.49;85.15;100663.00;4955478;28;45541;-61
2022/10/14 03:42:08;;;;;;;;;4.00;4.00;;;;;15.78;85.45;100698.94;4947561;28;45326;-62
2022/10/14 03:44:33;;;;;;;;;3.25;3.25;;;;;15.56;85.66;100685.81;4956170;28;45320;-61
2022/10/14 03:46:59;;;;;;;;;4.00;4.00;;;;;15.67;85.71;100700.69;4955955;28;46283;-61
2022/10/14 03:49:24;;;;;;;;;3.25;3.25;;;;;15.58;85.44;100675.34;4953965;28;45543;-62
2022/10/14 03:51:50;;;;;;;;;3.25;3.25;;;;;15.77;84.91;100693.66;4952323;28;45399;-62
2022/10/14 03:54:16;;;;;;;;;6.50;4.75;;;;;15.74;84.59;100689.44;4953179;28;45510;-61
2022/10/14 03:56:41;;;;;;;;;3.50;3.00;;;;;15.47;85.00;100653.28;4939340;28;45740;-61
2022/10/14 03:59:07;;;;;;;;;6.25;4.50;;;;;15.78;84.66;100703.63;4952906;28;45596;-62
2022/10/14 04:01:32;;;;;;;;;5.00;5.00;;;;;15.81;84.49;100708.69;4954194;28;45355;-61
2022/10/14 04:03:58;;;;;;;;;4.75;3.50;;;;;15.62;84.25;100672.09;4939367;28;45565;-61
2022/10/14 04:06:23;;;;;;;;;3.00;3.00;;;;;15.79;84.07;100700.63;4956799;28;45644;-61
2022/10/14 04:08:49;;;;;;;;;3.50;3.00;;;;;15.81;83.97;100708.69;4955347;28;45359;-61
2022/10/14 04:11:16;;;;;;;;;1.50;1.50;;;;;15.78;83.26;100698.09;4955570;28;45355;-61
2022/10/14 04:13:41;;;;;;;;;0.40;0.00;;;;;15.74;83.02;100708.81;4939628;28;45466;-61
2022/10/14 04:16:08;;;;;;;;;1.50;1.50;;;;;15.70;82.70;100705.72;4956361;28;45612;-61
2022/10/14 04:18:34;;;;;;;;;1.00;1.00;;;;;15.42;82.92;100667.84;4956492;28;45414;-61
2022/10/14 04:21:08;;;;;;;;;2.00;2.00;;;;;15.70;82.69;100705.72;4956593;28;45333;-62
2022/10/14 04:23:33;;;;;;;;;1.20;1.20;;;;;15.70;82.66;100702.13;4956824;28;45656;-62
2022/10/14 04:26:05;;;;;;;;;1.00;1.00;;;;;15.66;82.87;100701.78;4956045;28;45574;-62
2022/10/14 04:28:31;;;;;;;;;1.40;1.00;;;;;15.69;82.90;100697.69;4955244;28;45702;-62
2022/10/14 04:30:56;;;;;;;;;1.00;1.00;;;;;15.71;82.44;100687.19;4955891;28;45501;-62
2022/10/14 04:33:22;;;;;;;;;2.25;2.25;;;;;15.51;82.27;100660.81;4956386;28;45346;-62
2022/10/14 04:35:47;;;;;;;;;1.00;1.00;;;;;15.68;82.32;100693.22;4954656;28;46019;-61
2022/10/14 04:38:13;;;;;;;;;1.00;1.00;;;;;15.67;82.50;100699.84;4954958;28;45481;-61
2022/10/14 04:40:38;;;;;;;;;2.00;1.75;;;;;15.62;82.06;100697.81;4956600;28;45905;-61
2022/10/14 04:43:04;;;;;;;;;1.00;1.00;;;;;15.59;82.27;100695.56;4974197;28;45366;-61
2022/10/14 04:45:30;;;;;;;;;1.00;1.00;;;;;15.64;82.28;100700.34;4975988;28;45958;-61
2022/10/14 04:47:55;;;;;;;;;2.00;2.00;;;;;15.69;82.17;100697.69;4975332;28;45358;-61
2022/10/14 04:50:24;;;;;;;;;1.00;1.00;;;;;15.68;81.85;100694.06;4974470;28;45410;-61
2022/10/14 04:52:49;;;;;;;;;1.00;1.00;;;;;15.67;82.28;100686.00;4975830;28;45533;-63
2022/10/14 04:55:15;;;;;;;;;1.00;1.00;;;;;15.67;82.20;100669.41;4975102;28;45578;-62
2022/10/14 04:57:42;;;;;;;;;1.00;1.00;;;;;15.72;81.94;100677.81;4974112;28;45785;-62
2022/10/14 05:00:09;;;;;;;;;1.00;1.00;;;;;15.68;82.09;100673.84;4973928;28;45385;-62
2022/10/14 05:02:35;;;;;;;;;1.40;1.40;;;;;15.45;81.51;100636.91;4974340;28;45454;-62
2022/10/14 05:05:00;;;;;;;;;1.00;1.00;;;;;15.75;82.05;100682.00;4975542;28;45871;-63
2022/10/14 05:07:26;;;;;;;;;1.50;1.50;;;;;15.73;81.48;100671.19;4975046;28;45388;-62
2022/10/14 05:09:53;;;;;;;;;1.00;1.00;;;;;15.70;81.29;100674.47;4975843;28;45369;-62
2022/10/14 05:12:18;;;;;;;;;2.00;1.00;;;;;15.52;81.78;100656.97;4975237;28;45315;-62
2022/10/14 05:14:44;;;;;;;;;2.00;1.00;;;;;15.48;81.84;100649.41;4975481;28;45980;-62
2022/10/14 05:17:09;;;;;;;;;2.00;2.00;;;;;15.57;82.10;100679.19;4973994;28;45414;-63
2022/10/14 05:19:35;;;;;;;;;2.00;2.00;;;;;15.35;81.75;100633.94;4975073;28;45413;-63
2022/10/14 05:22:01;;;;;;;;;1.00;1.00;;;;;15.57;82.11;100676.44;4975811;28;45405;-62
2022/10/14 05:24:26;;;;;;;;;1.00;1.00;;;;;15.62;82.12;100683.16;4974865;28;46331;-62
2022/10/14 05:26:52;;;;;;;;;1.00;1.00;;;;;15.67;81.58;100670.25;4975440;28;45509;-63
2022/10/14 05:29:17;;;;;;;;;1.75;1.75;;;;;15.69;81.51;100668.06;4957854;28;45830;-63
2022/10/14 05:31:43;;;;;;;;;1.00;1.00;;;;;15.74;81.56;100664.56;4975279;28;45469;-63
2022/10/14 05:34:08;;;;;;;;;1.25;1.25;;;;;15.76;81.26;100667.06;4957821;28;47800;-63
2022/10/14 05:36:34;;;;;;;;;1.25;1.00;;;;;15.74;81.10;100669.25;4974996;28;45937;-63
2022/10/14 05:38:59;;;;;;;;;3.50;2.00;;;;;15.66;81.61;100668.59;4958037;28;45540;-63
2022/10/14 05:41:25;;;;;;;;;2.75;2.75;;;;;15.67;81.49;100656.41;4974070;28;45513;-63
2022/10/14 05:43:50;;;;;;;;;2.00;2.00;;;;;15.72;81.56;100655.66;4957498;28;47493;-63
2022/10/14 05:46:16;;;;;;;;;2.25;2.25;;;;;15.73;81.44;100662.88;4974924;28;45371;-62
2022/10/14 05:48:41;;;;;;;;;2.00;2.00;;;;;15.69;81.45;100665.31;4973318;28;45434;-62
2022/10/14 05:51:07;;;;;;;;;3.50;2.50;;;;;15.74;81.51;100667.31;4978735;28;45579;-62
2022/10/14 05:53:33;;;;;;;;;1.00;1.00;;;;;15.74;81.70;100664.56;4976716;28;46219;-63
2022/10/14 05:56:03;;;;;;;;;3.00;3.00;;;;;15.49;82.13;100635.34;4978339;28;45286;-62
2022/10/14 05:58:28;;;;;;;;;3.60;3.00;;;;;15.68;82.24;100679.38;4977006;28;45512;-62
2022/10/14 06:00:58;;;;;;;;;4.00;4.00;;;;;15.54;82.28;100642.91;4978236;28;45355;-62
2022/10/14 06:03:23;;;;;;;;;5.00;3.40;;;;;15.70;82.25;100675.28;4976938;28;46460;-63
2022/10/14 06:05:49;;;;;;;;;5.00;4.50;;;;;15.72;82.14;100672.28;4977934;28;45243;-62
2022/10/14 06:08:15;;;;;;;;;6.50;5.50;;;;;15.74;81.75;100674.78;4977981;28;45304;-62
2022/10/14 06:10:40;;;;;;;;;4.25;4.25;;;;;15.78;81.85;100675.97;4978223;28;45522;-62
2022/10/14 06:13:06;;;;;;;;;4.50;4.50;;;;;15.79;81.58;100672.94;4960289;28;45561;-62
2022/10/14 06:15:33;;;;;;;;;6.00;6.00;;;;;15.79;81.57;100672.13;4977062;28;45542;-62
2022/10/14 06:17:58;;;;;;;;;5.00;5.00;;;;;15.79;81.65;100672.94;4976326;28;45453;-62
2022/10/14 06:20:24;;;;;;;;;4.75;4.75;;;;;15.34;81.06;100594.41;4976824;28;45411;-62
2022/10/14 06:22:49;;;;;;;;;3.75;3.75;;;;;15.79;81.64;100663.81;4976166;28;47043;-63
2022/10/14 06:25:15;;;;;;;;;5.50;4.00;;;;;15.86;81.05;100676.41;4977663;28;45363;-62
2022/10/14 06:27:41;;;;;;;;;5.50;5.50;;;;;15.80;81.47;100660.78;4976768;28;45374;-62
2022/10/14 06:30:07;;;;;;;;;6.75;5.50;;;;;15.91;81.15;100677.59;4977788;28;45514;-62
2022/10/14 06:32:33;;;;;;;;;6.80;5.20;;;;;15.91;81.15;100672.06;4976419;28;46790;-61
2022/10/14 06:34:59;;;;;;;;;5.00;5.00;;;;;15.86;80.83;100657.03;4977587;28;45442;-62
2022/10/14 06:37:24;;;;;;;;;4.25;4.25;;;;;15.93;80.89;100673.53;4976625;28;45343;-64
2022/10/14 06:39:50;;;;;;;;;7.00;5.50;;;;;15.86;80.79;100672.81;4976516;28;45387;-63
2022/10/14 06:42:15;;;;;;;;;6.75;5.00;;;;;15.88;81.07;100678.06;4964787;28;45698;-63
2022/10/14 06:44:41;;;;;;;;;3.00;3.00;;;;;15.89;80.88;100677.84;4958170;28;45383;-61
2022/10/14 06:47:06;;;;;;;;;2.75;2.50;;;;;15.93;80.85;100672.66;4957802;28;45785;-61
2022/10/14 06:49:32;;;;;;;;;6.00;5.50;;;;;15.76;80.69;100636.63;4930928;28;46070;-61
2022/10/14 06:51:57;;;;;;;;;4.25;4.25;;;;;15.83;80.48;100654.78;4956289;28;46126;-60
2022/10/14 06:54:23;;;;;;;;;3.25;3.00;;;;;16.04;79.99;100681.97;4917182;28;45472;-62
2022/10/14 06:56:48;;;;;;;;;3.00;3.00;;;;;15.84;79.73;100656.44;4963435;28;45457;-65
2022/10/14 06:59:14;;;;;;;;;6.50;5.75;;;;;16.02;80.36;100686.94;4956217;28;45435;-66
2022/10/14 07:01:39;;;;;;;;;5.00;3.75;;;;;15.91;79.91;100674.81;4956879;28;46074;-60
2022/10/14 07:04:05;;;;;;;;;6.75;5.75;;;;;15.93;79.52;100680.97;4955556;28;45461;-66
2022/10/14 07:06:31;;;;;;;;;3.00;3.00;;;;;16.01;79.54;100688.84;4972719;28;45731;-68
2022/10/14 07:08:56;;;;;;;;;2.75;2.75;;;;;15.96;79.41;100688.78;4957777;28;45710;-65
2022/10/14 07:11:22;;;;;;;;;2.00;2.00;;;;;15.85;78.62;100694.09;4972259;28;48172;-66
2022/10/14 07:13:47;;;;;;;;;4.75;2.25;;;;;15.83;78.89;100699.06;4957504;28;45279;-65
2022/10/14 07:16:13;;;;;;;;;3.00;3.00;;;;;15.80;78.99;100707.84;4972683;28;45612;-64
2022/10/14 07:18:38;;;;;;;;;2.00;2.00;;;;;15.78;79.17;100698.09;4956490;28;45402;-65
2022/10/14 07:21:04;;;;;;;;;3.00;2.00;;;;;15.82;79.00;100715.88;4957540;28;45359;-66
2022/10/14 07:23:30;;;;;;;;;3.00;2.00;;;;;15.75;78.83;100717.97;4956209;28;45427;-65
2022/10/14 07:25:56;;;;;;;;;2.00;2.00;;;;;15.78;79.55;100711.94;4956061;28;45773;-66
2022/10/14 07:28:26;;;;;;;;;4.00;3.00;;;;;15.77;79.40;100722.19;4952408;28;45776;-65
2022/10/14 07:31:06;;;;;;;;;2.00;1.80;;;;;15.72;79.39;100717.38;4969425;28;46385;-64
2022/10/14 07:33:33;;;;;;;;;2.20;1.80;;;;;15.64;79.41;100692.88;4974490;28;45656;-64
2022/10/14 07:36:06;;;;;;;;;3.00;3.00;;;;;15.77;79.24;100726.84;4973191;28;45515;-62
2022/10/14 07:38:32;;;;;;;;;4.60;3.00;;;;;15.74;79.58;100725.41;4974486;28;45398;-62
2022/10/14 07:41:03;;;;;;;;;3.00;2.00;;;;;15.69;78.86;100728.13;4972906;28;48304;-65
2022/10/14 07:43:28;;;;;;;;;2.00;2.00;;;;;15.43;79.25;100703.53;4988866;28;45410;-63
2022/10/14 07:46:00;;;;;;;;;2.50;2.00;;;;;15.47;79.25;100722.41;4989651;28;45540;-64
2022/10/14 07:48:29;;;;;;;;;4.40;2.00;;;;;15.57;79.10;100728.13;4961670;28;45404;-66
2022/10/14 07:50:57;;;;;;;;;0.00;0.00;;;;;15.50;78.93;100738.50;4966145;28;47605;-64
2022/10/14 07:53:23;;;;;;;;;4.40;2.20;;;;;15.38;79.78;100728.31;4976060;28;46341;-64
2022/10/14 07:55:52;;;;;;;;;1.00;1.00;;;;;15.39;79.03;100729.16;4989992;28;45442;-66
2022/10/14 07:58:21;;;;;;;;;2.80;2.00;;;;;15.49;79.25;100734.91;4972466;28;45383;-65
2022/10/14 08:00:48;;;;;;;;;3.60;2.40;;;;;15.55;79.16;100736.69;4989712;28;46106;-65
2022/10/14 08:03:13;;;;;;;;;2.00;2.00;;;;;15.64;78.84;100747.38;4973101;28;45469;-63
2022/10/14 08:05:39;;;;;;;;;2.50;2.50;;;;;15.64;78.15;100736.31;4972746;28;45488;-61
2022/10/14 08:08:08;;;;;;;;;1.80;1.80;;;;;15.69;78.53;100750.25;4973999;28;45506;-63
2022/10/14 08:10:35;;;;;;;;;2.00;2.00;;;;;15.68;78.05;100751.31;4974182;28;46277;-68
2022/10/14 08:13:01;;;;;;;;;2.40;1.80;;;;;15.59;77.79;100729.56;4972746;28;45520;-66
2022/10/14 08:15:28;;;;;;;;;4.50;4.25;;;;;15.71;77.34;100757.19;4988331;28;45400;-67
2022/10/14 08:17:55;;;;;;;;;1.60;1.00;;;;;15.70;76.60;100761.03;4970658;28;45684;-67
2022/10/14 08:20:21;;;;;;;;;1.80;1.80;;;;;15.48;76.71;100726.84;4973067;28;48078;-67
2022/10/14 08:22:46;;;;;;;;;3.00;2.00;;;;;15.65;76.77;100758.19;4956645;28;45449;-66
2022/10/14 08:25:12;;;;;;;;;1.00;1.00;;;;;15.48;77.06;100713.84;4989666;28;45378;-67
2022/10/14 08:27:37;;;;;;;;;3.00;2.00;;;;;15.67;76.68;100747.72;4964753;28;45369;-66
2022/10/14 08:30:03;;;;;;;;;2.25;2.25;;;;;15.57;76.81;100733.66;4972902;28;46339;-68
2022/10/14 08:32:29;;;;;;;;;2.40;2.40;;;;;15.68;76.68;100759.59;4989375;28;45436;-66
2022/10/14 08:34:55;;;;;;;;;3.00;2.00;;;;;15.68;77.26;100766.00;4974331;28;45276;-65
2022/10/14 08:37:21;;;;;;;;;4.50;2.00;;;;;15.71;77.16;100756.38;4989877;28;45380;-67
2022/10/14 08:39:46;;;;;;;;;2.40;2.40;;;;;15.75;77.13;100759.47;4988943;28;47369;-66
2022/10/14 08:42:16;;;;;;;;;2.00;2.00;;;;;15.73;76.28;100762.47;4973416;28;45429;-66
2022/10/14 08:44:51;;;;;;;;;2.00;2.00;;;;;15.55;76.37;100733.09;4973861;28;45752;-65
2022/10/14 08:47:20;;;;;;;;;2.00;2.00;;;;;15.70;76.81;100751.91;4973534;28;45354;-65
2022/10/14 08:50:00;;;;;;;;;3.40;1.80;;;;;15.80;76.96;100754.88;4988795;28;45530;-66
2022/10/14 08:52:53;;;;;;;;;2.00;2.00;;;;;15.79;76.48;100753.19;4974545;28;45707;-66
2022/10/14 08:55:34;;;;;;;;;3.20;3.20;;;;;15.79;77.12;100764.25;4971973;28;45460;-67
2022/10/14 08:58:22;;;;;;;;;2.00;2.00;;;;;15.78;77.22;100754.28;4988667;28;45782;-67
2022/10/14 09:00:50;;;;;;;;;1.60;1.40;;;;;15.86;76.83;100756.66;4987018;28;45903;-66
2022/10/14 09:03:19;;;;;;;;;3.40;2.00;;;;;15.71;76.85;100715.69;4973983;28;45519;-66
2022/10/14 09:05:45;;;;;;;;;2.00;2.00;;;;;15.91;76.89;100747.59;4972908;28;45358;-67
2022/10/14 09:08:13;;;;;;;;;6.75;2.75;;;;;15.93;76.55;100752.94;4988479;28;45610;-65
2022/10/14 09:10:40;;;;;;;;;2.00;2.00;;;;;16.01;76.95;100758.06;4988946;28;45425;-67
2022/10/14 09:13:22;;;;;;;;;1.40;1.40;;;;;15.99;75.95;100752.78;4972450;28;45448;-65
2022/10/14 09:16:03;;;;;;;;;2.40;1.00;;;;;15.97;76.50;100745.81;4965177;28;45491;-65
2022/10/14 09:18:37;;;;;;;;;2.60;2.60;;;;;15.77;76.66;100711.09;4970202;28;46472;-67
2022/10/14 09:21:10;;;;;;;;;2.00;2.00;;;;;15.87;76.56;100724.28;4987508;28;47495;-64
2022/10/14 09:23:36;;;;;;;;;3.80;2.00;;;;;15.96;76.86;100733.06;4987844;28;45424;-67
2022/10/14 09:26:16;;;;;;;;;2.50;2.00;;;;;15.97;76.96;100729.22;4977053;28;45344;-65
2022/10/14 09:28:42;;;;;;;;;2.00;2.00;;;;;16.06;76.95;100735.19;4967427;28;45446;-66
2022/10/14 09:31:10;;;;;;;;;3.80;3.80;;;;;16.00;76.90;100709.31;4990701;28;45572;-66
2022/10/14 09:33:38;;;;;;;;;2.60;2.60;;;;;16.09;77.05;100732.75;4975835;28;45522;-67
2022/10/14 09:36:25;;;;;;;;;3.20;3.00;;;;;16.10;76.94;100730.81;4977128;28;45629;-67
2022/10/14 09:38:52;;;;;;;;;5.40;3.60;;;;;15.96;76.46;100705.41;4976278;28;45678;-68
2022/10/14 09:41:20;;;;;;;;;5.00;4.00;;;;;16.17;76.48;100730.66;4975374;28;46280;-67
2022/10/14 09:44:21;;;;;;;;;3.80;2.00;;;;;16.20;76.98;100730.16;4964449;28;45529;-66
2022/10/14 09:47:02;;;;;;;;;3.60;2.40;;;;;16.16;76.65;100724.28;4992327;28;45867;-65
2022/10/14 09:49:30;;;;;;;;;3.00;3.00;;;;;16.02;76.81;100698.88;4975960;28;45668;-65
2022/10/14 09:51:56;;;;;;;;;6.20;6.20;;;;;16.12;77.08;100714.81;4991860;28;46548;-64
2022/10/14 09:54:25;;;;;;;;;5.00;5.00;;;;;16.03;77.08;100696.91;4991721;28;45896;-68
2022/10/14 09:57:03;;;;;;;;;5.00;5.00;;;;;16.10;77.19;100712.28;4974752;28;45557;-64
2022/10/14 09:59:29;;;;;;;;;4.80;3.80;;;;;16.05;76.99;100703.88;4991500;28;45287;-67
2022/10/14 10:02:00;;;;;;;;;5.00;5.00;;;;;16.23;76.71;100722.19;4975838;28;46088;-68
2022/10/14 10:04:46;;;;;;;;;4.40;4.40;;;;;16.24;76.61;100728.56;4975320;28;45405;-69
2022/10/14 10:07:29;;;;;;;;;2.40;2.40;;;;;16.28;76.10;100727.00;4990068;28;45330;-70
2022/10/14 10:09:56;;;;;;;;;4.00;4.00;;;;;16.27;76.22;100711.44;4991811;28;45582;-66
2022/10/14 10:12:28;;;;;;;;;3.00;3.00;;;;;16.38;76.25;100723.53;4991309;28;46234;-66
2022/10/14 10:15:04;;;;;;;;;5.00;4.00;;;;;16.43;76.02;100720.03;4975137;28;45466;-63
2022/10/14 10:17:34;;;;;;;;;3.00;3.00;;;;;16.45;75.21;100724.22;4976447;28;45386;-68
2022/10/14 10:20:41;;;;;;;;;4.60;3.00;;;;;16.42;75.83;100713.63;4956728;28;45617;-67
2022/10/14 10:23:27;;;;;;;;;4.80;4.80;;;;;16.52;75.54;100718.50;4985589;28;45793;-66
2022/10/14 10:25:53;;;;;;;;;4.80;3.40;;;;;16.57;75.82;100715.81;4978618;28;45477;-63
2022/10/14 10:28:31;;;;;;;;;3.25;3.25;;;;;16.57;75.42;100715.81;4977867;28;45441;-65
2022/10/14 10:31:16;;;;;;;;;5.20;3.60;;;;;16.55;75.35;100703.31;4976480;28;45556;-64
2022/10/14 10:33:51;;;;;;;;;4.00;4.00;;;;;16.37;75.25;100659.00;4991013;28;46319;-63
2022/10/14 10:36:27;;;;;;;;;3.80;3.80;;;;;16.68;75.28;100697.41;4976105;28;45800;-64
2022/10/14 10:38:58;;;;;;;;;4.00;4.00;;;;;16.73;74.75;100705.81;4992165;28;45406;-63
2022/10/14 10:41:36;;;;;;;;;3.60;3.60;;;;;16.81;74.56;100707.28;4992310;28;45497;-66
2022/10/14 10:44:16;;;;;;;;;5.80;4.60;;;;;16.87;74.31;100703.50;4957963;28;46558;-62
2022/10/14 10:47:05;;;;;;;;;2.80;1.40;;;;;16.82;73.48;100692.38;4957752;28;45391;-65
2022/10/14 10:49:49;;;;;;;;;2.80;2.80;;;;;16.67;72.85;100668.84;4941667;28;45399;-63
2022/10/14 10:52:45;;;;;;;;;2.60;2.60;;;;;16.84;73.69;100687.41;4958553;28;45447;-63
2022/10/14 10:55:36;;;;;;;;;1.80;1.80;;;;;16.88;73.93;100680.25;4956429;28;46251;-62
2022/10/14 10:58:39;;;;;;;;;4.00;2.20;;;;;16.86;73.35;100668.56;4990244;28;50229;-63
2022/10/14 11:01:24;;;;;;;;;2.00;2.00;;;;;16.87;73.38;100638.94;4958551;28;45608;-64
2022/10/14 11:03:56;;;;;;;;;3.00;3.00;;;;;16.94;73.36;100656.22;4955586;28;45710;-67
2022/10/14 11:12:37;;;;;;;;;3.20;3.20;;;;;16.83;73.97;100654.38;4994150;28;45423;-68
2022/10/14 11:15:09;;;;;;;;;2.20;2.20;;;;;16.86;74.23;100662.19;4995224;28;45407;-68
2022/10/14 11:18:00;;;;;;;;;5.20;4.20;;;;;16.33;74.79;100588.59;4973336;28;46744;-66
2022/10/14 11:20:56;;;;;;;;;4.40;4.40;;;;;16.77;75.06;100647.94;4987684;28;45445;-65
2022/10/14 11:23:38;;;;;;;;;4.40;3.80;;;;;16.77;75.63;100645.19;4987503;28;45329;-71
2022/10/14 11:26:45;;;;;;;;;10.60;10.60;;;;;16.74;75.42;100632.66;4956091;28;45520;-69
2022/10/14 11:29:51;;;;;;;;;6.20;5.00;;;;;16.74;76.10;100627.13;4952208;28;45805;-67
2022/10/14 11:32:43;;;;;;;;;5.00;3.20;;;;;16.53;75.70;100581.66;4954714;28;45749;-68
2022/10/14 11:35:52;;;;;;;;;4.00;4.00;;;;;16.81;76.02;100621.38;4948816;28;45361;-68
2022/10/14 11:38:47;;;;;;;;;2.40;2.20;;;;;16.81;75.67;100607.53;4912446;28;45362;-68
2022/10/14 11:41:22;;;;;;;;;2.00;2.00;;;;;16.83;75.32;100607.28;4954898;28;45411;-65
2022/10/14 11:43:49;;;;;;;;;2.20;2.20;;;;;16.78;75.04;100603.34;4990648;28;45176;-67